createdAt,value
2018-03-07T00:00:01.152Z,74.41
2018-03-07T00:02:28.541Z,74.11
2018-03-07T00:04:55.955Z,74.03
2018-03-07T00:07:23.371Z,73.53
2018-03-07T00:09:50.872Z,74.20
2018-03-07T00:12:18.255Z,74.39
2018-03-07T00:14:45.786Z,74.40
2018-03-07T00:17:13.247Z,74.49
2018-03-07T00:19:40.685Z,74.48
2018-03-07T00:22:08.075Z,74.67
2018-03-07T00:24:35.506Z,74.50
2018-03-07T00:27:02.903Z,74.39
2018-03-07T00:29:30.359Z,74.45
2018-03-07T00:31:57.770Z,74.13
2018-03-07T00:34:25.171Z,73.81
2018-03-07T00:36:52.554Z,73.22
2018-03-07T00:39:20.004Z,72.46
2018-03-07T00:41:47.435Z,71.85
2018-03-07T00:44:14.891Z,71.20
2018-03-07T00:46:42.287Z,70.83
2018-03-07T00:49:09.695Z,70.63
2018-03-07T00:51:37.086Z,70.53
2018-03-07T00:54:04.503Z,70.23
2018-03-07T00:56:31.890Z,69.79
2018-03-07T00:58:59.317Z,69.31
2018-03-07T01:01:26.740Z,69.06
2018-03-07T01:03:54.200Z,68.78
2018-03-07T01:06:21.590Z,68.66
2018-03-07T01:08:49.085Z,68.50
2018-03-07T01:11:16.494Z,68.47
2018-03-07T01:13:43.896Z,68.46
2018-03-07T01:16:11.398Z,69.72
2018-03-07T01:18:38.828Z,69.97
2018-03-07T01:21:06.220Z,70.17
2018-03-07T01:23:33.657Z,70.00
2018-03-07T01:26:01.126Z,69.76
2018-03-07T01:28:28.548Z,70.16
2018-03-07T01:30:55.951Z,69.92
2018-03-07T01:33:23.350Z,70.13
2018-03-07T01:35:50.739Z,70.49
2018-03-07T01:38:18.138Z,70.20
2018-03-07T01:40:45.530Z,70.00
2018-03-07T01:43:12.961Z,70.03
2018-03-07T01:45:40.362Z,71.15
2018-03-07T01:48:07.787Z,71.73
2018-03-07T01:50:35.267Z,72.86
2018-03-07T01:53:02.722Z,72.95
2018-03-07T01:55:30.919Z,72.82
2018-03-07T01:57:58.314Z,73.79
2018-03-07T02:00:25.704Z,73.63
2018-03-07T02:02:53.097Z,74.43
2018-03-07T02:05:20.488Z,74.92
2018-03-07T02:07:47.911Z,75.78
2018-03-07T02:12:48.183Z,75.97
2018-03-07T02:15:15.669Z,75.97
2018-03-07T02:17:43.069Z,76.32
2018-03-07T02:20:10.454Z,76.69
2018-03-07T02:22:38.306Z,76.73
2018-03-07T02:25:05.759Z,76.64
2018-03-07T02:27:33.150Z,76.98
2018-03-07T02:30:00.660Z,76.91
2018-03-07T02:32:28.042Z,76.86
2018-03-07T02:34:55.467Z,76.62
2018-03-07T02:37:22.901Z,76.54
2018-03-07T02:39:50.430Z,76.13
2018-03-07T02:42:17.815Z,76.75
2018-03-07T02:44:45.214Z,77.11
2018-03-07T02:47:12.616Z,77.10
2018-03-07T02:49:40.038Z,77.68
2018-03-07T02:52:07.422Z,77.07
2018-03-07T02:54:34.826Z,76.14
2018-03-07T02:57:02.218Z,75.59
2018-03-07T02:59:29.723Z,75.14
2018-03-07T03:01:57.178Z,74.80
2018-03-07T03:04:24.576Z,74.55
2018-03-07T03:06:51.987Z,74.97
2018-03-07T03:09:19.385Z,75.25
2018-03-07T03:11:46.775Z,75.28
2018-03-07T03:14:14.171Z,74.89
2018-03-07T03:16:41.567Z,75.34
2018-03-07T03:19:08.974Z,75.12
2018-03-07T03:21:36.425Z,74.38
2018-03-07T03:24:03.870Z,73.76
2018-03-07T03:26:31.262Z,72.89
2018-03-07T03:28:58.674Z,72.16
2018-03-07T03:31:26.083Z,71.62
2018-03-07T03:33:53.477Z,71.16
2018-03-07T03:36:20.951Z,70.88
2018-03-07T03:38:48.358Z,70.70
2018-03-07T03:41:15.854Z,70.54
2018-03-07T03:43:43.254Z,70.30
2018-03-07T03:46:10.644Z,70.19
2018-03-07T03:48:38.042Z,70.11
2018-03-07T03:51:05.486Z,69.96
2018-03-07T03:53:32.934Z,70.57
2018-03-07T03:56:00.401Z,71.35
2018-03-07T03:58:27.794Z,72.28
2018-03-07T04:00:55.199Z,73.06
2018-03-07T04:03:22.601Z,74.04
2018-03-07T04:05:49.986Z,74.20
2018-03-07T04:08:17.470Z,74.44
2018-03-07T04:10:44.869Z,73.96
2018-03-07T04:13:12.275Z,73.45
2018-03-07T04:15:39.669Z,72.79
2018-03-07T04:18:07.090Z,72.31
2018-03-07T04:20:34.553Z,71.76
2018-03-07T04:23:01.960Z,72.00
2018-03-07T04:25:29.379Z,72.47
2018-03-07T04:27:56.727Z,73.16
2018-03-07T04:30:24.138Z,72.66
2018-03-07T04:32:51.634Z,72.05
2018-03-07T04:35:19.090Z,71.70
2018-03-07T04:37:46.479Z,71.73
2018-03-07T04:40:13.870Z,71.48
2018-03-07T04:42:41.271Z,71.43
2018-03-07T04:45:08.675Z,71.40
2018-03-07T04:47:36.071Z,71.38
2018-03-07T04:50:03.472Z,71.12
2018-03-07T04:52:30.859Z,70.82
2018-03-07T04:54:58.260Z,70.42
2018-03-07T04:57:25.763Z,70.08
2018-03-07T04:59:53.163Z,69.84
2018-03-07T05:02:20.603Z,70.12
2018-03-07T05:04:47.995Z,70.56
2018-03-07T05:07:15.490Z,70.37
2018-03-07T05:09:42.884Z,70.48
2018-03-07T05:12:10.299Z,70.58
2018-03-07T05:14:37.699Z,70.73
2018-03-07T05:17:05.095Z,70.59
2018-03-07T05:19:32.529Z,70.81
2018-03-07T05:21:59.915Z,70.74
2018-03-07T05:24:27.323Z,70.50
2018-03-07T05:26:54.734Z,70.94
2018-03-07T05:29:22.130Z,71.26
2018-03-07T05:31:49.522Z,71.62
2018-03-07T05:34:16.953Z,72.40
2018-03-07T05:36:44.337Z,72.43
2018-03-07T05:39:11.741Z,72.50
2018-03-07T05:41:39.240Z,72.94
2018-03-07T05:44:06.679Z,73.49
2018-03-07T05:46:34.066Z,73.47
2018-03-07T05:49:01.470Z,74.17
2018-03-07T05:51:28.857Z,74.51
2018-03-07T05:53:56.260Z,74.85
2018-03-07T05:56:23.754Z,75.26
2018-03-07T05:58:51.167Z,75.50
2018-03-07T06:01:18.586Z,75.46
2018-03-07T06:03:45.986Z,75.82
2018-03-07T06:06:13.381Z,76.37
2018-03-07T06:08:40.826Z,76.19
2018-03-07T06:11:08.307Z,75.74
2018-03-07T06:13:35.723Z,75.07
2018-03-07T06:16:03.118Z,74.26
2018-03-07T06:18:30.546Z,73.30
2018-03-07T06:20:57.943Z,73.02
2018-03-07T06:23:25.326Z,72.38
2018-03-07T06:25:52.814Z,71.72
2018-03-07T06:28:20.217Z,71.32
2018-03-07T06:30:47.607Z,70.93
2018-03-07T06:33:15.010Z,70.55
2018-03-07T06:35:42.435Z,70.50
2018-03-07T06:38:09.822Z,70.43
2018-03-07T06:40:37.210Z,70.11
2018-03-07T06:43:04.602Z,69.68
2018-03-07T06:45:32.028Z,69.52
2018-03-07T06:47:59.427Z,69.45
2018-03-07T06:50:26.863Z,69.58
2018-03-07T06:52:54.273Z,69.95
2018-03-07T06:55:21.783Z,70.60
2018-03-07T06:57:49.176Z,70.11
2018-03-07T07:00:16.618Z,69.66
2018-03-07T07:02:43.990Z,69.27
2018-03-07T07:05:11.383Z,68.91
2018-03-07T07:07:38.783Z,68.64
2018-03-07T07:10:06.174Z,68.42
2018-03-07T07:12:33.571Z,68.14
2018-03-07T07:15:01.014Z,67.76
2018-03-07T07:17:28.474Z,67.45
2018-03-07T07:19:55.930Z,67.19
2018-03-07T07:22:23.314Z,66.93
2018-03-07T07:24:50.741Z,66.66
2018-03-07T07:27:18.131Z,66.32
2018-03-07T07:29:45.555Z,66.32
2018-03-07T07:34:40.198Z,66.38
2018-03-07T07:37:07.589Z,66.04
2018-03-07T07:39:34.983Z,66.03
2018-03-07T07:42:02.386Z,66.54
2018-03-07T07:44:29.780Z,66.08
2018-03-07T07:46:57.229Z,65.66
2018-03-07T07:49:24.632Z,65.32
2018-03-07T07:51:52.024Z,64.93
2018-03-07T07:54:19.422Z,64.50
2018-03-07T07:56:46.807Z,64.57
2018-03-07T07:59:14.199Z,65.21
2018-03-07T08:01:41.596Z,65.71
2018-03-07T08:04:09.010Z,65.85
2018-03-07T08:06:36.470Z,66.07
2018-03-07T08:09:03.858Z,67.38
2018-03-07T08:11:31.254Z,67.71
2018-03-07T08:13:58.655Z,66.83
2018-03-07T08:16:26.094Z,66.00
2018-03-07T08:18:53.478Z,66.02
2018-03-07T08:21:21.436Z,65.64
2018-03-07T08:23:48.825Z,65.04
2018-03-07T08:26:16.218Z,65.41
2018-03-07T08:28:43.611Z,65.36
2018-03-07T08:31:11.050Z,64.72
2018-03-07T08:33:38.494Z,64.48
2018-03-07T08:36:05.905Z,64.38
2018-03-07T08:38:33.289Z,64.64
2018-03-07T08:41:00.688Z,65.17
2018-03-07T08:43:28.080Z,65.16
2018-03-07T08:45:55.490Z,64.65
2018-03-07T08:48:22.891Z,63.96
2018-03-07T08:50:50.387Z,63.40
2018-03-07T08:53:17.782Z,63.07
2018-03-07T08:55:45.186Z,62.81
2018-03-07T08:58:12.573Z,62.44
2018-03-07T09:00:40.008Z,62.18
2018-03-07T09:03:07.460Z,61.38
2018-03-07T09:05:34.850Z,61.01
2018-03-07T09:08:02.243Z,61.16
2018-03-07T09:10:29.642Z,60.62
2018-03-07T09:12:57.841Z,60.38
2018-03-07T09:15:25.224Z,60.94
2018-03-07T09:17:52.616Z,61.47
2018-03-07T09:20:20.021Z,62.73
2018-03-07T09:22:47.407Z,62.52
2018-03-07T09:25:14.916Z,62.31
2018-03-07T09:27:42.307Z,61.35
2018-03-07T09:30:09.707Z,62.51
2018-03-07T09:32:37.103Z,62.26
2018-03-07T09:35:04.513Z,61.49
2018-03-07T09:37:31.961Z,61.04
2018-03-07T09:39:59.366Z,60.30
2018-03-07T09:42:26.811Z,60.04
2018-03-07T09:44:56.941Z,60.34
2018-03-07T09:47:24.535Z,59.79
2018-03-07T09:49:51.990Z,59.28
2018-03-07T09:52:19.390Z,58.41
2018-03-07T09:54:46.806Z,58.51
2018-03-07T09:57:14.262Z,58.82
2018-03-07T09:59:41.655Z,58.66
2018-03-07T10:02:09.068Z,58.28
2018-03-07T10:04:36.456Z,57.81
2018-03-07T10:07:03.913Z,58.81
2018-03-07T10:09:31.266Z,59.48
2018-03-07T10:11:58.658Z,58.86
2018-03-07T10:14:26.151Z,58.43
2018-03-07T10:16:55.258Z,56.90
2018-03-07T10:19:24.680Z,57.14
2018-03-07T10:21:52.178Z,56.26
2018-03-07T10:24:19.751Z,56.25
2018-03-07T10:26:47.142Z,56.26
2018-03-07T10:29:14.594Z,56.08
2018-03-07T10:31:42.038Z,56.98
2018-03-07T10:34:09.510Z,56.55
2018-03-07T10:36:36.899Z,57.14
2018-03-07T10:39:04.284Z,57.25
2018-03-07T10:41:31.794Z,57.32
2018-03-07T10:43:59.200Z,57.47
2018-03-07T10:46:26.600Z,57.35
2018-03-07T10:48:54.032Z,56.91
2018-03-07T10:51:21.478Z,57.84
2018-03-07T10:53:48.961Z,58.24
2018-03-07T10:56:16.395Z,59.74
2018-03-07T10:58:43.786Z,59.95
2018-03-07T11:01:11.259Z,60.24
2018-03-07T11:03:38.727Z,60.10
2018-03-07T11:06:06.117Z,60.61
2018-03-07T11:08:33.507Z,60.80
2018-03-07T11:11:01.691Z,62.26
2018-03-07T11:13:29.093Z,62.36
2018-03-07T11:15:56.492Z,62.77
2018-03-07T11:18:23.932Z,61.97
2018-03-07T11:20:51.280Z,62.61
2018-03-07T11:23:18.772Z,61.33
2018-03-07T11:25:46.158Z,59.99
2018-03-07T11:28:13.600Z,60.88
2018-03-07T11:30:41.039Z,62.89
2018-03-07T11:33:08.499Z,63.14
2018-03-07T11:35:35.955Z,62.95
2018-03-07T11:38:03.356Z,62.83
2018-03-07T11:40:30.746Z,62.83
2018-03-07T11:42:58.138Z,62.67
2018-03-07T11:45:25.536Z,63.63
2018-03-07T11:47:53.031Z,63.92
2018-03-07T11:50:20.498Z,63.88
2018-03-07T11:52:47.911Z,63.17
2018-03-07T11:55:15.301Z,63.26
2018-03-07T11:57:42.695Z,64.20
2018-03-07T12:00:11.096Z,64.21
2018-03-07T12:02:38.486Z,64.08
2018-03-07T12:05:05.882Z,64.46
2018-03-07T12:07:33.289Z,65.79
2018-03-07T12:10:00.670Z,66.41
2018-03-07T12:12:28.112Z,66.63
2018-03-07T12:14:55.508Z,65.33
2018-03-07T12:17:22.933Z,65.87
2018-03-07T12:19:50.318Z,65.54
2018-03-07T12:22:17.740Z,64.85
2018-03-07T12:24:45.143Z,63.31
2018-03-07T12:27:12.542Z,62.76
2018-03-07T12:29:39.998Z,62.20
2018-03-07T12:32:07.475Z,61.95
2018-03-07T12:34:34.919Z,62.33
2018-03-07T12:37:02.367Z,61.74
2018-03-07T12:39:29.826Z,62.51
2018-03-07T12:41:57.282Z,62.26
2018-03-07T12:44:25.450Z,61.70
2018-03-07T12:46:52.943Z,62.59
2018-03-07T12:49:20.358Z,61.97
2018-03-07T12:51:47.837Z,62.48
2018-03-07T12:54:15.297Z,62.85
2018-03-07T12:56:43.135Z,62.11
2018-03-07T12:59:10.526Z,62.56
2018-03-07T13:01:37.934Z,64.18
2018-03-07T13:04:05.322Z,64.46
2018-03-07T13:06:32.792Z,63.29
2018-03-07T13:09:00.162Z,63.70
2018-03-07T13:11:27.570Z,62.80
2018-03-07T13:13:55.063Z,63.74
2018-03-07T13:16:22.477Z,63.85
2018-03-07T13:18:49.954Z,62.04
2018-03-07T13:21:17.415Z,62.38
2018-03-07T13:23:44.825Z,62.00
2018-03-07T13:26:12.223Z,61.04
2018-03-07T13:28:39.658Z,60.35
2018-03-07T13:31:07.048Z,59.07
2018-03-07T13:33:34.446Z,59.40
2018-03-07T13:36:01.877Z,59.76
2018-03-07T13:38:29.324Z,58.96
2018-03-07T13:40:56.767Z,58.52
2018-03-07T13:43:24.171Z,58.56
2018-03-07T13:45:51.579Z,57.54
2018-03-07T13:48:19.046Z,56.05
2018-03-07T13:50:46.537Z,54.88
2018-03-07T13:53:13.872Z,54.14
2018-03-07T13:55:41.426Z,53.86
2018-03-07T13:58:08.869Z,53.24
2018-03-07T14:00:36.326Z,52.08
2018-03-07T14:03:03.769Z,51.91
2018-03-07T14:05:31.167Z,51.47
2018-03-07T14:07:58.559Z,51.96
2018-03-07T14:10:26.019Z,51.67
2018-03-07T14:12:53.414Z,51.61
2018-03-07T14:15:20.824Z,52.75
2018-03-07T14:17:48.284Z,52.83
2018-03-07T14:20:15.634Z,52.52
2018-03-07T14:22:43.028Z,51.38
2018-03-07T14:25:10.418Z,51.57
2018-03-07T14:30:10.578Z,53.58
2018-03-07T14:32:38.010Z,54.52
2018-03-07T14:35:05.967Z,54.77
2018-03-07T14:37:33.362Z,55.60
2018-03-07T14:40:00.747Z,56.20
2018-03-07T14:42:28.942Z,56.26
2018-03-07T14:44:56.331Z,57.16
2018-03-07T14:47:23.737Z,56.94
2018-03-07T14:49:51.129Z,55.95
2018-03-07T14:52:18.534Z,56.75
2018-03-07T14:54:45.926Z,57.77
2018-03-07T14:57:13.319Z,60.49
2018-03-07T14:59:41.251Z,60.05
2018-03-07T15:02:08.643Z,60.07
2018-03-07T15:04:36.058Z,60.70
2018-03-07T15:07:03.439Z,61.54
2018-03-07T15:09:30.844Z,60.98
2018-03-07T15:11:58.236Z,59.97
2018-03-07T15:14:25.640Z,59.29
2018-03-07T15:16:53.019Z,59.89
2018-03-07T15:19:20.415Z,59.54
2018-03-07T15:21:47.842Z,59.67
2018-03-07T15:24:15.234Z,61.23
2018-03-07T15:26:42.623Z,62.00
2018-03-07T15:29:10.015Z,63.29
2018-03-07T15:31:37.403Z,65.79
2018-03-07T15:34:04.830Z,65.98
2018-03-07T15:36:32.282Z,64.74
2018-03-07T15:38:59.671Z,64.67
2018-03-07T15:41:27.109Z,65.42
2018-03-07T15:43:54.508Z,65.47
2018-03-07T15:46:22.010Z,64.88
2018-03-07T15:48:49.398Z,63.86
2018-03-07T15:51:16.786Z,63.90
2018-03-07T15:53:44.179Z,64.68
2018-03-07T15:56:11.652Z,64.67
2018-03-07T15:58:39.042Z,63.94
2018-03-07T16:01:06.442Z,64.21
2018-03-07T16:03:33.831Z,64.07
2018-03-07T16:06:01.233Z,64.80
2018-03-07T16:08:29.134Z,65.96
2018-03-07T16:10:56.523Z,66.71
2018-03-07T16:13:23.922Z,67.04
2018-03-07T16:15:51.302Z,66.87
2018-03-07T16:18:18.734Z,67.41
2018-03-07T16:20:46.118Z,67.81
2018-03-07T16:23:13.517Z,68.14
2018-03-07T16:25:41.013Z,67.93
2018-03-07T16:28:08.483Z,67.56
2018-03-07T16:30:35.879Z,67.84
2018-03-07T16:33:03.271Z,67.49
2018-03-07T16:35:30.654Z,68.00
2018-03-07T16:37:58.082Z,67.81
2018-03-07T16:40:25.466Z,68.64
2018-03-07T16:42:52.864Z,68.82
2018-03-07T16:45:20.355Z,69.48
2018-03-07T16:47:47.830Z,69.81
2018-03-07T16:50:15.203Z,68.83
2018-03-07T16:52:42.587Z,68.52
2018-03-07T16:55:09.979Z,69.34
2018-03-07T16:57:37.384Z,69.84
2018-03-07T17:00:04.789Z,70.26
2018-03-07T17:02:32.185Z,70.68
2018-03-07T17:04:59.599Z,70.63
2018-03-07T17:07:27.082Z,71.02
2018-03-07T17:09:54.585Z,71.91
2018-03-07T17:12:21.967Z,72.37
2018-03-07T17:14:49.493Z,72.22
2018-03-07T17:17:16.864Z,72.26
2018-03-07T17:19:44.303Z,72.49
2018-03-07T17:22:11.724Z,73.44
2018-03-07T17:24:39.206Z,72.99
2018-03-07T17:27:07.264Z,72.68
2018-03-07T17:29:34.727Z,71.95
2018-03-07T17:32:02.142Z,71.92
2018-03-07T17:34:29.544Z,71.51
2018-03-07T17:36:56.947Z,72.22
2018-03-07T17:39:24.351Z,71.83
2018-03-07T17:41:51.802Z,71.00
2018-03-07T17:44:19.191Z,70.89
2018-03-07T17:46:46.571Z,70.37
2018-03-07T17:49:14.074Z,70.68
2018-03-07T17:51:41.463Z,70.71
2018-03-07T17:54:08.883Z,71.07
2018-03-07T17:56:36.279Z,70.84
2018-03-07T17:59:03.675Z,70.92
2018-03-07T18:01:31.066Z,70.88
2018-03-07T18:03:58.522Z,70.79
2018-03-07T18:06:25.978Z,71.28
2018-03-07T18:08:53.412Z,72.41
2018-03-07T18:11:20.795Z,73.24
2018-03-07T18:13:48.229Z,73.41
2018-03-07T18:16:15.662Z,73.66
2018-03-07T18:18:43.121Z,73.90
2018-03-07T18:21:10.530Z,73.98
2018-03-07T18:23:37.902Z,74.39
2018-03-07T18:26:05.295Z,75.01
2018-03-07T18:28:32.704Z,75.33
2018-03-07T18:31:00.203Z,76.05
2018-03-07T18:33:27.599Z,76.21
2018-03-07T18:35:55.010Z,76.46
2018-03-07T18:38:22.394Z,76.72
2018-03-07T18:40:49.799Z,76.79
2018-03-07T18:43:17.190Z,76.39
2018-03-07T18:45:44.598Z,76.10
2018-03-07T18:48:11.982Z,76.27
2018-03-07T18:50:39.394Z,76.73
2018-03-07T18:53:06.805Z,76.62
2018-03-07T18:55:34.202Z,76.74
2018-03-07T18:58:01.593Z,77.00
2018-03-07T19:00:28.999Z,76.67
2018-03-07T19:02:56.430Z,76.28
2018-03-07T19:05:23.821Z,76.06
2018-03-07T19:07:51.220Z,75.96
2018-03-07T19:10:18.610Z,75.31
2018-03-07T19:12:46.063Z,75.71
2018-03-07T19:15:13.467Z,76.09
2018-03-07T19:17:40.859Z,76.77
2018-03-07T19:20:08.273Z,77.08
2018-03-07T19:22:35.663Z,76.91
2018-03-07T19:25:03.078Z,76.64
2018-03-07T19:27:30.577Z,76.07
2018-03-07T19:29:58.031Z,75.77
2018-03-07T19:32:25.414Z,75.54
2018-03-07T19:34:52.819Z,75.88
2018-03-07T19:37:20.219Z,76.35
2018-03-07T19:39:47.668Z,76.48
2018-03-07T19:42:15.067Z,76.82
2018-03-07T19:44:42.511Z,76.78
2018-03-07T19:47:09.895Z,77.43
2018-03-07T19:49:37.372Z,77.39
2018-03-07T19:52:04.758Z,77.45
2018-03-07T19:54:32.159Z,77.24
2018-03-07T19:56:59.550Z,77.97
2018-03-07T19:59:26.949Z,77.59
2018-03-07T20:01:54.369Z,77.32
2018-03-07T20:04:21.777Z,77.85
2018-03-07T20:06:49.186Z,77.58
2018-03-07T20:09:16.628Z,77.57
2018-03-07T20:11:44.041Z,78.32
2018-03-07T20:14:11.549Z,78.73
2018-03-07T20:16:38.958Z,79.19
2018-03-07T20:19:06.350Z,80.02
2018-03-07T20:21:33.747Z,80.11
2018-03-07T20:24:01.154Z,80.71
2018-03-07T20:26:28.580Z,80.73
2018-03-07T20:28:55.975Z,81.02
2018-03-07T20:31:23.394Z,80.96
2018-03-07T20:33:50.903Z,80.42
2018-03-07T20:36:18.308Z,80.21
2018-03-07T20:38:45.802Z,80.36
2018-03-07T20:41:13.254Z,80.13
2018-03-07T20:43:40.647Z,80.00
2018-03-07T20:46:08.057Z,80.12
2018-03-07T20:48:35.472Z,79.72
2018-03-07T20:51:03.060Z,79.36
2018-03-07T20:53:30.458Z,78.99
2018-03-07T20:55:57.842Z,78.33
2018-03-07T20:58:25.325Z,77.91
2018-03-07T21:00:52.747Z,78.82
2018-03-07T21:03:20.141Z,79.13
2018-03-07T21:05:47.580Z,79.47
2018-03-07T21:08:14.973Z,78.85
2018-03-07T21:10:42.830Z,78.35
2018-03-07T21:13:10.313Z,78.43
2018-03-07T21:15:37.810Z,79.19
2018-03-07T21:18:05.276Z,79.58
2018-03-07T21:20:32.675Z,79.72
2018-03-07T21:23:00.076Z,79.72
2018-03-07T21:25:27.487Z,80.44
2018-03-07T21:27:54.886Z,79.96
2018-03-07T21:30:22.344Z,79.19
2018-03-07T21:32:49.715Z,79.07
2018-03-07T21:35:17.109Z,79.01
2018-03-07T21:37:44.502Z,79.07
2018-03-07T21:40:11.911Z,78.95
2018-03-07T21:42:39.374Z,79.33
2018-03-07T21:45:06.796Z,79.56
2018-03-07T21:47:34.203Z,79.29
2018-03-07T21:50:01.583Z,79.21
2018-03-07T21:52:28.971Z,79.02
2018-03-07T21:54:56.363Z,78.48
2018-03-07T21:57:23.771Z,78.69
2018-03-07T21:59:51.163Z,79.67
2018-03-07T22:02:18.578Z,80.05
2018-03-07T22:04:46.080Z,79.65
2018-03-07T22:07:13.479Z,79.57
2018-03-07T22:09:40.885Z,79.16
2018-03-07T22:12:08.359Z,78.84
2018-03-07T22:14:35.810Z,78.57
2018-03-07T22:17:03.198Z,78.37
2018-03-07T22:19:30.587Z,78.08
2018-03-07T22:21:58.058Z,77.50
2018-03-07T22:24:25.496Z,77.39
2018-03-07T22:26:52.847Z,77.23
2018-03-07T22:29:20.323Z,77.11
2018-03-07T22:31:48.413Z,77.09
2018-03-07T22:34:15.789Z,76.92
2018-03-07T22:36:43.198Z,76.97
2018-03-07T22:39:10.583Z,76.89
2018-03-07T22:41:37.973Z,76.70
2018-03-07T22:44:05.364Z,76.75
2018-03-07T22:46:32.762Z,77.46
2018-03-07T22:49:00.222Z,77.49
2018-03-07T22:51:27.623Z,77.27
2018-03-07T22:53:55.050Z,77.62
2018-03-07T22:56:22.477Z,77.92
2018-03-07T22:58:49.957Z,77.13
2018-03-07T23:01:17.366Z,76.72
2018-03-07T23:03:44.758Z,76.72
2018-03-07T23:06:12.150Z,76.97
2018-03-07T23:08:39.539Z,77.84
2018-03-07T23:11:07.047Z,78.31
2018-03-07T23:13:34.449Z,78.37
2018-03-07T23:16:01.840Z,77.80
2018-03-07T23:18:29.226Z,77.48
2018-03-07T23:20:56.646Z,77.32
2018-03-07T23:23:24.030Z,77.47
2018-03-07T23:25:51.450Z,77.70
2018-03-07T23:28:18.851Z,77.44
2018-03-07T23:30:46.256Z,77.47
2018-03-07T23:33:13.663Z,77.44
2018-03-07T23:35:41.059Z,77.67
2018-03-07T23:38:08.453Z,77.46
2018-03-07T23:40:35.846Z,77.52
2018-03-07T23:43:03.243Z,76.93
2018-03-07T23:45:30.718Z,77.65
2018-03-07T23:47:58.152Z,77.29
2018-03-07T23:50:25.619Z,77.05
2018-03-07T23:52:53.015Z,76.84
2018-03-07T23:55:20.431Z,77.49
2018-03-07T23:57:47.831Z,78.63
